Time;durP1;ratioP1;P1;durP2;ratioP2;P2;SDS_P1;SDS_P2;PMS_P1;PMS_P2;Temp;Humidity;BMP_temperature;BMP_pressure;BME280_temperature;BME280_humidity;BME280_pressure;Samples;Min_cycle;Max_cycle;Signal;HPM_P1;HPM_P2
2023/02/20 00:01:26;;;;;;;2.63;1.95;;;7.40;99.90;;;;;;5048682;28;20207;-71
2023/02/20 00:03:54;;;;;;;2.97;1.80;;;7.40;99.90;;;;;;5048281;28;20209;-70
2023/02/20 00:06:21;;;;;;;4.13;2.13;;;7.40;99.90;;;;;;5047898;28;20598;-71
2023/02/20 00:08:47;;;;;;;2.70;2.20;;;7.40;99.90;;;;;;5048107;28;20228;-70
2023/02/20 00:11:14;;;;;;;4.82;2.20;;;7.40;99.90;;;;;;5048114;28;20205;-70
2023/02/20 00:13:46;;;;;;;2.75;2.13;;;7.50;99.90;;;;;;5048469;28;20304;-70
2023/02/20 00:16:12;;;;;;;2.38;2.13;;;7.40;99.90;;;;;;5047593;28;20264;-70
2023/02/20 00:18:39;;;;;;;3.90;2.30;;;7.50;99.90;;;;;;5047821;28;20626;-70
2023/02/20 00:21:07;;;;;;;3.50;2.17;;;7.50;99.90;;;;;;5047923;28;20209;-70
2023/02/20 00:23:34;;;;;;;2.53;2.10;;;7.40;99.90;;;;;;5047768;28;20231;-70
2023/02/20 00:26:01;;;;;;;4.60;2.38;;;7.40;99.90;;;;;;5047654;28;20568;-70
2023/02/20 00:28:28;;;;;;;2.03;1.80;;;7.40;99.90;;;;;;5047869;28;20216;-70
2023/02/20 00:30:55;;;;;;;3.70;2.80;;;7.40;99.90;;;;;;5048289;28;20622;-70
2023/02/20 00:33:22;;;;;;;3.80;2.58;;;7.40;99.90;;;;;;5047687;28;20231;-70
2023/02/20 00:35:49;;;;;;;2.05;1.85;;;7.40;99.90;;;;;;5047334;28;20579;-70
2023/02/20 00:38:18;;;;;;;2.70;2.10;;;7.40;99.90;;;;;;5047831;28;20229;-70
2023/02/20 00:40:44;;;;;;;3.90;2.53;;;7.40;99.90;;;;;;5048045;28;20217;-70
2023/02/20 00:43:11;;;;;;;2.40;1.63;;;7.40;99.90;;;;;;5047961;28;20224;-70
2023/02/20 00:45:38;;;;;;;8.45;2.63;;;7.30;99.90;;;;;;5046691;28;20212;-70
2023/02/20 00:48:05;;;;;;;2.50;2.30;;;7.30;99.90;;;;;;5047426;28;20232;-71
2023/02/20 00:50:32;;;;;;;2.40;2.15;;;7.30;99.90;;;;;;5047019;28;20213;-70
2023/02/20 00:52:59;;;;;;;3.53;2.40;;;7.30;99.90;;;;;;5046807;28;20224;-70
2023/02/20 00:55:27;;;;;;;3.55;2.50;;;7.40;99.90;;;;;;5047038;28;20209;-70
2023/02/20 00:57:54;;;;;;;2.88;1.90;;;7.40;99.90;;;;;;5047171;28;20236;-70
2023/02/20 01:00:24;;;;;;;2.88;2.28;;;7.50;99.90;;;;;;5047470;28;20299;-70
2023/02/20 01:02:51;;;;;;;1.98;1.80;;;7.50;99.90;;;;;;5047399;28;20562;-70
2023/02/20 01:05:18;;;;;;;7.60;2.30;;;7.40;99.90;;;;;;5046775;28;20208;-70
2023/02/20 01:07:45;;;;;;;4.20;2.20;;;7.40;99.90;;;;;;5046831;28;20232;-70
2023/02/20 01:10:13;;;;;;;2.50;2.20;;;7.40;99.90;;;;;;5047461;28;20578;-70
2023/02/20 01:12:41;;;;;;;2.63;1.90;;;7.50;99.90;;;;;;5046990;28;20220;-70
2023/02/20 01:15:11;;;;;;;2.13;1.92;;;7.50;99.90;;;;;;5046926;28;20207;-70
2023/02/20 01:17:37;;;;;;;3.63;2.33;;;7.50;99.90;;;;;;5047018;28;20248;-70
2023/02/20 01:20:06;;;;;;;2.03;1.80;;;7.60;99.90;;;;;;5047318;28;20300;-70
2023/02/20 01:22:32;;;;;;;2.30;1.90;;;7.60;99.90;;;;;;5047026;28;20673;-70
2023/02/20 01:24:59;;;;;;;2.00;1.60;;;7.60;99.90;;;;;;5046770;28;20209;-70
2023/02/20 01:27:26;;;;;;;2.20;1.92;;;7.60;99.90;;;;;;5047488;28;20228;-70
2023/02/20 01:29:54;;;;;;;4.35;2.40;;;7.60;99.90;;;;;;5046982;28;20205;-70
2023/02/20 01:32:21;;;;;;;4.50;2.20;;;7.60;99.90;;;;;;5047182;28;20229;-70
2023/02/20 01:34:47;;;;;;;3.70;2.17;;;7.60;99.90;;;;;;5046828;28;20209;-70
2023/02/20 01:37:14;;;;;;;3.63;2.20;;;7.60;99.90;;;;;;5047157;28;20235;-70
2023/02/20 01:39:41;;;;;;;2.85;2.15;;;7.60;99.90;;;;;;5048317;28;20208;-70
2023/02/20 01:42:16;;;;;;;2.20;2.00;;;7.60;99.90;;;;;;5048400;28;20674;-70
2023/02/20 01:44:43;;;;;;;4.40;1.98;;;7.60;99.90;;;;;;5049930;28;20196;-70
2023/02/20 01:47:15;;;;;;;3.15;2.28;;;7.60;99.90;;;;;;5049695;28;20221;-70
2023/02/20 01:49:45;;;;;;;5.45;2.40;;;7.60;99.90;;;;;;5050105;28;20205;-70
2023/02/20 01:52:17;;;;;;;2.28;1.90;;;7.60;99.90;;;;;;5050085;28;20217;-70
2023/02/20 01:54:48;;;;;;;2.30;2.10;;;7.60;99.90;;;;;;5049900;28;20208;-70
2023/02/20 01:57:26;;;;;;;3.22;2.15;;;7.50;99.90;;;;;;5050226;28;20243;-70
2023/02/20 01:59:57;;;;;;;2.30;2.10;;;7.60;99.90;;;;;;5049873;28;20677;-70
2023/02/20 02:02:28;;;;;;;1.95;1.80;;;7.60;99.90;;;;;;5050769;28;20208;-70
2023/02/20 02:04:54;;;;;;;5.60;2.05;;;7.60;99.90;;;;;;5053100;28;20201;-70
2023/02/20 02:07:21;;;;;;;3.28;1.95;;;7.50;99.90;;;;;;5053561;28;20221;-70
2023/02/20 02:09:53;;;;;;;3.05;2.38;;;7.50;99.90;;;;;;5053616;28;20205;-70
2023/02/20 02:12:21;;;;;;;3.50;2.38;;;7.50;99.90;;;;;;5053423;28;20714;-70
2023/02/20 02:14:47;;;;;;;3.80;2.22;;;7.50;99.90;;;;;;5053115;28;20212;-71
2023/02/20 02:17:39;;;;;;;3.08;2.35;;;7.50;99.90;;;;;;5053437;28;20312;-70
2023/02/20 02:20:42;;;;;;;2.50;2.28;;;7.40;99.90;;;;;;5049833;28;20660;-70
2023/02/20 02:23:40;;;;;;;3.28;2.05;;;7.40;99.90;;;;;;5053320;28;20196;-70
2023/02/20 02:26:29;;;;;;;2.63;2.22;;;7.40;99.90;;;;;;5052705;28;20208;-70
2023/02/20 02:29:14;;;;;;;3.80;2.13;;;7.40;99.90;;;;;;5053245;28;20212;-70
2023/02/20 02:32:19;;;;;;;1.70;1.48;;;7.30;99.90;;;;;;5053197;28;20212;-70
2023/02/20 02:35:24;;;;;;;3.08;2.03;;;7.30;99.90;;;;;;5050962;28;20201;-70
2023/02/20 02:38:03;;;;;;;3.58;1.73;;;7.20;99.90;;;;;;5052798;28;20232;-70
2023/02/20 02:40:41;;;;;;;4.05;2.25;;;7.10;99.90;;;;;;5052208;28;20201;-70
2023/02/20 02:43:12;;;;;;;2.95;2.20;;;7.10;99.90;;;;;;5052978;28;20205;-70
2023/02/20 02:45:46;;;;;;;3.25;2.17;;;7.10;99.90;;;;;;5050638;28;20687;-70
2023/02/20 02:48:20;;;;;;;3.88;2.20;;;7.10;99.90;;;;;;5052714;28;20216;-70
2023/02/20 02:50:49;;;;;;;3.55;2.10;;;7.00;99.90;;;;;;5052705;28;20605;-70
2023/02/20 02:53:17;;;;;;;5.45;2.28;;;7.00;99.90;;;;;;5052980;28;20227;-70
2023/02/20 02:55:44;;;;;;;3.95;2.03;;;7.00;99.90;;;;;;5052443;28;20205;-70
2023/02/20 02:58:13;;;;;;;4.00;2.00;;;7.00;99.90;;;;;;5052782;28;20233;-70
2023/02/20 03:00:45;;;;;;;3.65;1.80;;;7.00;99.90;;;;;;5052641;28;20211;-70
2023/02/20 03:03:16;;;;;;;3.67;2.05;;;6.90;99.90;;;;;;5052764;28;20208;-70
2023/02/20 03:05:49;;;;;;;3.80;2.70;;;7.00;99.90;;;;;;5052000;28;20201;-70
2023/02/20 03:08:31;;;;;;;2.47;2.17;;;6.90;99.90;;;;;;5052919;28;20252;-70
2023/02/20 03:11:04;;;;;;;5.32;2.10;;;6.90;99.90;;;;;;5052408;28;20213;-70
2023/02/20 03:16:23;;;;;;;1.65;1.55;;;6.80;99.90;;;;;;5052019;28;20207;-70
2023/02/20 03:18:51;;;;;;;2.05;1.85;;;6.80;99.90;;;;;;5052322;28;20212;-70
2023/02/20 03:21:22;;;;;;;6.10;2.00;;;6.80;99.90;;;;;;5052515;28;20213;-70
2023/02/20 03:23:54;;;;;;;4.95;2.25;;;6.80;99.90;;;;;;5052332;28;20208;-70
2023/02/20 03:26:25;;;;;;;2.53;2.00;;;6.80;99.90;;;;;;5052574;28;20204;-70
2023/02/20 03:28:57;;;;;;;2.20;1.88;;;6.80;99.90;;;;;;5052445;28;20594;-70
2023/02/20 03:31:30;;;;;;;3.78;1.85;;;6.80;99.90;;;;;;5053307;28;20201;-70
2023/02/20 03:45:18;;;;;;;3.20;2.60;;;6.90;99.90;;;;;;5052960;28;20196;-70
2023/02/20 03:47:49;;;;;;;2.40;1.98;;;6.80;99.90;;;;;;5052442;28;20233;-70
2023/02/20 03:53:01;;;;;;;3.42;1.98;;;6.80;99.90;;;;;;5053160;28;20765;-71
2023/02/20 03:55:29;;;;;;;3.72;2.40;;;6.80;99.90;;;;;;5052482;28;20201;-70
2023/02/20 03:58:00;;;;;;;2.78;2.13;;;6.70;99.90;;;;;;5053023;28;20233;-70
2023/02/20 04:00:31;;;;;;;3.42;2.42;;;6.70;99.90;;;;;;5052790;28;20622;-70
2023/02/20 04:03:02;;;;;;;3.38;1.90;;;6.60;99.90;;;;;;5052406;28;20197;-70
2023/02/20 04:05:33;;;;;;;2.25;1.83;;;6.60;99.90;;;;;;5052414;28;20296;-70
2023/02/20 04:08:04;;;;;;;4.43;2.58;;;6.50;99.90;;;;;;5052972;28;20229;-70
2023/02/20 04:10:40;;;;;;;2.83;1.70;;;6.50;99.90;;;;;;5052665;28;20205;-70
2023/02/20 04:13:07;;;;;;;3.45;2.15;;;6.40;99.90;;;;;;5052552;28;20220;-71
2023/02/20 04:15:34;;;;;;;3.50;1.65;;;6.40;99.90;;;;;;5052157;28;20205;-71
2023/02/20 04:18:05;;;;;;;2.47;1.77;;;6.40;99.90;;;;;;5052527;28;20217;-71
2023/02/20 04:20:32;;;;;;;3.40;2.10;;;6.30;99.90;;;;;;5052655;28;20212;-71
2023/02/20 04:23:04;;;;;;;3.00;2.35;;;6.20;99.90;;;;;;5052559;28;20212;-71
2023/02/20 04:25:38;;;;;;;3.15;1.80;;;6.20;99.90;;;;;;5052208;28;20201;-71
2023/02/20 04:28:06;;;;;;;2.63;2.42;;;6.10;99.90;;;;;;5052249;28;20221;-71
2023/02/20 04:30:32;;;;;;;4.47;2.83;;;6.10;99.90;;;;;;5052052;28;20205;-71
2023/02/20 04:32:59;;;;;;;6.03;2.65;;;6.10;99.90;;;;;;5051268;28;20251;-71
2023/02/20 04:35:26;;;;;;;5.05;2.35;;;6.10;99.90;;;;;;5051063;28;20675;-71
2023/02/20 04:37:53;;;;;;;4.35;2.20;;;6.00;99.90;;;;;;5050869;28;20617;-71
2023/02/20 04:40:23;;;;;;;2.85;2.20;;;5.90;99.90;;;;;;5051813;28;20460;-71
2023/02/20 04:42:51;;;;;;;2.53;2.15;;;5.90;99.90;;;;;;5050875;28;20291;-71
2023/02/20 04:45:17;;;;;;;3.65;2.00;;;5.80;99.90;;;;;;5050913;28;20205;-71
2023/02/20 04:47:44;;;;;;;4.47;2.50;;;5.80;99.90;;;;;;5051047;28;20228;-71
2023/02/20 04:50:16;;;;;;;2.45;1.88;;;5.80;99.90;;;;;;5051345;28;20200;-71
2023/02/20 04:52:43;;;;;;;2.20;1.60;;;5.80;99.90;;;;;;5050936;28;20201;-71
2023/02/20 04:55:10;;;;;;;3.13;2.25;;;5.80;99.90;;;;;;5050485;28;20201;-71
2023/02/20 04:57:36;;;;;;;3.30;2.50;;;5.70;99.90;;;;;;5050554;28;20244;-71
2023/02/20 05:00:07;;;;;;;2.85;2.33;;;5.70;99.90;;;;;;5050435;28;20553;-71
2023/02/20 05:02:34;;;;;;;4.18;2.30;;;5.70;99.90;;;;;;5051407;28;20255;-71
2023/02/20 05:05:01;;;;;;;3.55;2.33;;;5.60;99.90;;;;;;5051470;28;20204;-71
2023/02/20 05:07:27;;;;;;;3.47;2.70;;;5.60;99.90;;;;;;5052540;28;20221;-71
2023/02/20 05:09:54;;;;;;;6.15;2.42;;;5.60;99.90;;;;;;5050968;28;20773;-71
2023/02/20 05:12:21;;;;;;;3.25;2.25;;;5.60;99.90;;;;;;5050437;28;20205;-70
2023/02/20 05:14:48;;;;;;;2.95;2.45;;;5.60;99.90;;;;;;5050061;28;20229;-71
2023/02/20 05:17:16;;;;;;;2.22;2.00;;;5.50;99.90;;;;;;5050478;28;20292;-70
2023/02/20 05:19:43;;;;;;;2.90;2.70;;;5.50;99.90;;;;;;5051392;28;20204;-71
2023/02/20 05:22:18;;;;;;;4.88;2.30;;;5.50;99.90;;;;;;5051803;28;20660;-70
2023/02/20 05:24:46;;;;;;;3.40;2.80;;;5.50;99.90;;;;;;5049078;28;20812;-70
2023/02/20 05:27:14;;;;;;;3.47;2.97;;;5.50;99.90;;;;;;5044631;28;20502;-70
2023/02/20 05:29:45;;;;;;;3.13;2.60;;;5.50;99.90;;;;;;5030034;28;20304;-70
2023/02/20 05:32:11;;;;;;;3.58;2.30;;;5.50;99.90;;;;;;5029313;28;20301;-69
2023/02/20 05:34:39;;;;;;;2.22;2.03;;;5.50;99.90;;;;;;5027133;28;20629;-70
2023/02/20 05:37:06;;;;;;;3.60;2.38;;;5.40;99.90;;;;;;5027397;28;20229;-70
2023/02/20 05:39:33;;;;;;;3.63;2.70;;;5.40;99.90;;;;;;5033695;28;20201;-70
2023/02/20 05:42:00;;;;;;;2.20;2.00;;;5.40;99.90;;;;;;5032196;28;20213;-69
2023/02/20 05:44:26;;;;;;;2.22;2.03;;;5.40;99.90;;;;;;5034065;28;20224;-70
2023/02/20 05:46:54;;;;;;;2.80;2.58;;;5.40;99.90;;;;;;5033124;28;20623;-70
2023/02/20 05:49:21;;;;;;;3.08;2.67;;;5.40;99.90;;;;;;5033951;28;20877;-70
2023/02/20 05:51:50;;;;;;;3.67;2.80;;;5.30;99.90;;;;;;5033420;28;20708;-69
2023/02/20 05:54:16;;;;;;;3.20;2.25;;;5.30;99.90;;;;;;5033703;28;20241;-70
2023/02/20 05:56:43;;;;;;;2.85;2.55;;;5.30;99.90;;;;;;5032905;28;20226;-70
2023/02/20 05:59:11;;;;;;;3.40;3.10;;;5.30;99.90;;;;;;5033639;28;20197;-70
2023/02/20 06:01:37;;;;;;;3.83;2.40;;;5.20;99.90;;;;;;5033598;28;20695;-70
2023/02/20 06:04:04;;;;;;;5.20;2.65;;;5.20;99.90;;;;;;5033382;28;20202;-70
2023/02/20 06:06:35;;;;;;;4.35;2.50;;;5.20;99.90;;;;;;5032849;28;20747;-70
2023/02/20 06:09:06;;;;;;;4.15;3.05;;;5.10;99.90;;;;;;5033487;28;20263;-70
2023/02/20 06:11:33;;;;;;;3.35;2.78;;;5.10;99.90;;;;;;5032920;28;20296;-70
2023/02/20 06:14:00;;;;;;;4.35;2.95;;;5.10;99.90;;;;;;5033203;28;20225;-70
2023/02/20 06:16:28;;;;;;;2.83;2.35;;;5.10;99.90;;;;;;5032805;28;20229;-70
2023/02/20 06:18:56;;;;;;;6.15;3.15;;;5.10;99.90;;;;;;5033187;28;20241;-70
2023/02/20 06:21:24;;;;;;;3.17;2.88;;;5.10;99.90;;;;;;5033210;28;20576;-70
2023/02/20 06:23:52;;;;;;;7.28;2.92;;;5.00;99.90;;;;;;5033318;28;20208;-70
2023/02/20 06:26:21;;;;;;;5.13;3.33;;;5.00;99.90;;;;;;5032609;28;20609;-70
2023/02/20 06:28:49;;;;;;;3.08;2.78;;;5.00;99.90;;;;;;5032852;28;20206;-70
2023/02/20 06:31:21;;;;;;;3.05;2.53;;;5.00;99.90;;;;;;5032902;28;20237;-70
2023/02/20 06:33:48;;;;;;;3.85;2.50;;;4.90;99.90;;;;;;5032989;28;20835;-70
2023/02/20 06:36:21;;;;;;;3.28;2.53;;;4.90;99.90;;;;;;5032349;28;20296;-70
2023/02/20 06:38:47;;;;;;;4.90;2.67;;;4.90;99.90;;;;;;5032800;28;20198;-69
2023/02/20 06:41:14;;;;;;;2.65;2.33;;;4.90;99.90;;;;;;5032793;28;20224;-69
2023/02/20 06:43:42;;;;;;;3.58;2.42;;;4.90;99.90;;;;;;5032992;28;20209;-69
2023/02/20 06:46:09;;;;;;;3.58;2.75;;;5.00;99.90;;;;;;5032185;28;20206;-68
2023/02/20 06:48:42;;;;;;;5.97;3.22;;;5.00;99.90;;;;;;5031959;28;20205;-68
2023/02/20 06:51:09;;;;;;;3.45;2.60;;;5.00;99.90;;;;;;5032266;28;20198;-68
2023/02/20 06:53:37;;;;;;;5.57;2.70;;;5.00;99.90;;;;;;5032423;28;20697;-69
2023/02/20 06:56:06;;;;;;;4.15;2.50;;;5.00;99.90;;;;;;5031906;28;20612;-69
2023/02/20 06:58:33;;;;;;;7.32;3.25;;;5.10;99.90;;;;;;5032655;28;20209;-69
2023/02/20 07:01:01;;;;;;;3.63;2.88;;;5.10;99.90;;;;;;5032181;28;20208;-68
2023/02/20 07:03:28;;;;;;;5.10;2.65;;;5.20;99.90;;;;;;5032478;28;20210;-69
2023/02/20 07:05:54;;;;;;;3.08;2.40;;;5.20;99.90;;;;;;5031544;28;20210;-69
2023/02/20 07:08:21;;;;;;;3.88;2.83;;;5.20;99.90;;;;;;5032276;28;20225;-69
2023/02/20 07:10:48;;;;;;;7.25;2.70;;;5.30;99.90;;;;;;5032100;28;20214;-69
2023/02/20 07:13:14;;;;;;;4.28;2.50;;;5.30;99.90;;;;;;5032076;28;20201;-68
2023/02/20 07:15:41;;;;;;;5.13;2.85;;;5.40;99.90;;;;;;5031216;28;20244;-68
2023/02/20 07:18:09;;;;;;;3.35;2.60;;;5.40;99.90;;;;;;5032142;28;20226;-69
2023/02/20 07:20:36;;;;;;;3.75;2.63;;;5.50;99.90;;;;;;5032307;28;20204;-69
2023/02/20 07:23:03;;;;;;;2.63;2.40;;;5.50;99.90;;;;;;5032008;28;20775;-69
2023/02/20 07:25:29;;;;;;;1.60;1.50;;;5.60;99.90;;;;;;5031724;28;20198;-68
2023/02/20 07:27:56;;;;;;;6.03;2.60;;;5.70;99.90;;;;;;5031726;28;20225;-69
2023/02/20 07:30:24;;;;;;;2.97;2.15;;;5.80;99.90;;;;;;5031936;28;20205;-69
2023/02/20 07:32:50;;;;;;;5.20;3.20;;;6.00;99.90;;;;;;5031627;28;20205;-68
2023/02/20 07:35:18;;;;;;;4.80;2.78;;;6.30;99.90;;;;;;5031269;28;20230;-69
2023/02/20 07:37:45;;;;;;;2.70;2.50;;;7.10;99.90;;;;;;5031509;28;20279;-69
2023/02/20 07:40:12;;;;;;;4.43;2.05;;;8.00;99.90;;;;;;5031775;28;20582;-69
2023/02/20 07:42:39;;;;;;;5.40;1.85;;;8.60;99.90;;;;;;5031332;28;20206;-69
2023/02/20 07:45:06;;;;;;;4.03;2.40;;;9.40;99.90;;;;;;5031183;28;20205;-69
2023/02/20 07:47:33;;;;;;;1.80;1.70;;;10.10;99.90;;;;;;5031212;28;20222;-68
2023/02/20 07:50:00;;;;;;;6.13;2.45;;;11.10;99.90;;;;;;5030948;28;20273;-69
2023/02/20 07:52:28;;;;;;;6.50;2.63;;;11.90;99.90;;;;;;5031614;28;20297;-69
2023/02/20 07:54:55;;;;;;;4.60;2.20;;;12.40;99.90;;;;;;5030524;28;20578;-70
2023/02/20 07:57:21;;;;;;;3.78;2.40;;;12.80;99.90;;;;;;5031250;28;20240;-69
2023/02/20 07:59:48;;;;;;;2.60;2.40;;;12.90;99.90;;;;;;5031198;28;20582;-69
2023/02/20 08:02:15;;;;;;;3.95;1.98;;;13.30;99.90;;;;;;5031161;28;20205;-69
2023/02/20 08:04:41;;;;;;;3.05;2.13;;;13.60;99.90;;;;;;5030949;28;20198;-68
2023/02/20 08:07:08;;;;;;;4.57;2.50;;;13.60;99.90;;;;;;5030905;28;20225;-69
2023/02/20 08:09:36;;;;;;;2.33;2.10;;;13.60;99.90;;;;;;5031342;28;20201;-68
2023/02/20 08:12:03;;;;;;;4.47;2.20;;;13.40;99.90;;;;;;5031227;28;20654;-69
2023/02/20 08:14:30;;;;;;;4.43;2.20;;;13.00;99.90;;;;;;5031353;28;20221;-69
2023/02/20 08:16:57;;;;;;;3.60;2.38;;;13.30;99.90;;;;;;5030497;28;20495;-69
2023/02/20 08:19:23;;;;;;;2.93;2.53;;;13.70;99.90;;;;;;5031275;28;20213;-68
2023/02/20 08:21:50;;;;;;;2.70;2.10;;;14.10;99.90;;;;;;5030790;28;20832;-68
2023/02/20 08:24:17;;;;;;;2.97;2.40;;;14.80;99.90;;;;;;5031311;28;20460;-68
2023/02/20 08:26:46;;;;;;;2.10;1.83;;;14.90;99.00;;;;;;5028829;28;20513;-67
2023/02/20 08:29:13;;;;;;;2.60;1.83;;;14.80;99.00;;;;;;5037037;28;20471;-67
2023/02/20 08:31:40;;;;;;;2.87;2.67;;;14.40;99.40;;;;;;5039981;28;20468;-66
2023/02/20 08:34:07;;;;;;;3.17;2.20;;;14.70;99.40;;;;;;5049008;28;20963;-68
2023/02/20 08:36:34;;;;;;;2.23;1.80;;;14.50;99.20;;;;;;5048444;28;20490;-69
2023/02/20 08:39:02;;;;;;;3.07;1.90;;;14.50;99.10;;;;;;5049908;28;20469;-67
2023/02/20 08:41:29;;;;;;;3.30;2.07;;;15.20;98.60;;;;;;5049351;28;20467;-69
2023/02/20 08:43:57;;;;;;;3.17;1.97;;;15.30;98.40;;;;;;5049535;28;20467;-69
2023/02/20 08:46:24;;;;;;;2.53;2.20;;;14.90;98.50;;;;;;5048964;28;20742;-69
2023/02/20 08:48:51;;;;;;;3.50;1.97;;;14.40;98.80;;;;;;5049180;28;20471;-68
2023/02/20 08:51:21;;;;;;;2.50;1.83;;;14.80;98.70;;;;;;5047209;28;20467;-68
2023/02/20 08:53:48;;;;;;;3.50;1.93;;;15.60;98.00;;;;;;5047154;28;20834;-69
2023/02/20 08:56:18;;;;;;;3.30;2.30;;;16.50;96.80;;;;;;5046633;28;20483;-69
2023/02/20 08:58:44;;;;;;;3.20;2.00;;;17.20;96.60;;;;;;5047160;28;20471;-69
2023/02/20 09:01:13;;;;;;;2.97;2.00;;;18.00;94.50;;;;;;5046240;28;20475;-69
2023/02/20 09:03:40;;;;;;;3.90;1.93;;;18.10;95.00;;;;;;5048994;28;20778;-69
2023/02/20 09:06:07;;;;;;;2.90;1.83;;;18.70;94.50;;;;;;5046107;28;20455;-69
2023/02/20 09:08:34;;;;;;;2.30;1.70;;;19.30;93.40;;;;;;5046356;28;20470;-69
2023/02/20 09:11:01;;;;;;;2.67;1.60;;;20.10;92.60;;;;;;5047123;28;20466;-69
2023/02/20 09:13:28;;;;;;;2.53;1.70;;;20.90;91.80;;;;;;5050747;28;20466;-69
2023/02/20 09:15:54;;;;;;;2.33;1.77;;;21.60;90.50;;;;;;5051467;28;20483;-69
2023/02/20 09:18:22;;;;;;;3.80;2.20;;;22.10;90.00;;;;;;5051671;28;20475;-68
2023/02/20 09:20:49;;;;;;;2.90;1.80;;;22.30;87.10;;;;;;5051099;28;20895;-69
2023/02/20 09:23:16;;;;;;;3.53;2.00;;;21.60;87.70;;;;;;5052612;28;20474;-69
2023/02/20 09:25:43;;;;;;;2.47;2.00;;;21.60;88.50;;;;;;5052707;28;20533;-67
2023/02/20 09:28:10;;;;;;;3.33;1.77;;;22.20;87.00;;;;;;5053488;28;21033;-69
2023/02/20 09:30:36;;;;;;;2.50;1.70;;;22.60;87.70;;;;;;5050575;28;20494;-68
2023/02/20 09:33:03;;;;;;;3.30;1.40;;;23.60;85.30;;;;;;5053407;28;20467;-68
2023/02/20 09:35:31;;;;;;;3.23;1.53;;;24.30;82.80;;;;;;5050372;28;20498;-69
2023/02/20 09:37:58;;;;;;;2.80;1.90;;;24.70;81.30;;;;;;5052977;28;20540;-68
2023/02/20 09:40:26;;;;;;;2.63;1.67;;;25.00;79.50;;;;;;5047752;28;21000;-69
2023/02/20 09:43:14;;;;;;;4.07;1.90;;;25.10;79.40;;;;;;5051540;28;20460;-68
2023/02/20 09:45:46;;;;;;;2.13;1.63;;;25.60;79.00;;;;;;5056456;28;20457;-68
2023/02/20 09:48:23;;;;;;;2.50;1.60;;;25.50;77.40;;;;;;5072889;28;20485;-68
2023/02/20 09:50:55;;;;;;;1.40;1.30;;;23.90;77.20;;;;;;5068346;28;20962;-68
2023/02/20 09:53:26;;;;;;;2.70;1.57;;;23.30;80.00;;;;;;5053419;28;20451;-69
2023/02/20 09:55:54;;;;;;;2.33;1.67;;;23.60;78.50;;;;;;5061457;28;20508;-69
2023/02/20 09:58:27;;;;;;;4.97;2.10;;;23.00;77.90;;;;;;5072536;28;20483;-69
2023/02/20 10:00:58;;;;;;;2.60;1.70;;;22.70;79.40;;;;;;5072902;28;20462;-67
2023/02/20 10:03:33;;;;;;;1.70;1.53;;;22.60;79.50;;;;;;5073209;28;20470;-68
2023/02/20 10:06:04;;;;;;;3.60;1.90;;;23.20;80.00;;;;;;5041987;28;20450;-69
2023/02/20 10:08:31;;;;;;;1.93;1.37;;;23.60;78.20;;;;;;5053348;28;20459;-69
2023/02/20 10:11:03;;;;;;;2.10;1.43;;;23.50;78.20;;;;;;5051569;28;20460;-68
2023/02/20 10:13:42;;;;;;;2.30;1.60;;;22.70;78.40;;;;;;5053422;28;20455;-68
2023/02/20 10:16:21;;;;;;;2.37;1.77;;;21.50;80.30;;;;;;5051646;28;20857;-68
2023/02/20 10:19:05;;;;;;;2.43;1.60;;;20.70;82.00;;;;;;5051420;28;20459;-71
2023/02/20 10:21:45;;;;;;;3.80;2.10;;;19.60;83.30;;;;;;5052048;28;20467;-70
2023/02/20 10:24:29;;;;;;;3.13;2.20;;;19.00;85.00;;;;;;5052635;28;20970;-70
2023/02/20 10:27:04;;;;;;;5.57;2.23;;;19.40;84.70;;;;;;5052087;28;20494;-69
2023/02/20 10:29:35;;;;;;;4.60;2.23;;;20.00;85.40;;;;;;5051072;28;20459;-69
2023/02/20 10:32:07;;;;;;;2.43;1.80;;;21.40;82.20;;;;;;5051830;28;20459;-70
2023/02/20 10:34:39;;;;;;;3.07;1.70;;;22.40;82.30;;;;;;5051613;28;20885;-70
2023/02/20 10:37:13;;;;;;;2.47;1.83;;;23.70;79.10;;;;;;5052060;28;20490;-70
2023/02/20 10:39:45;;;;;;;2.83;1.60;;;24.70;78.60;;;;;;5033409;28;20470;-69
2023/02/20 10:42:16;;;;;;;3.53;2.30;;;25.60;75.70;;;;;;5052199;28;20463;-70
2023/02/20 10:44:50;;;;;;;3.17;2.13;;;25.50;75.60;;;;;;5048866;28;20460;-70
2023/02/20 10:47:22;;;;;;;2.00;1.60;;;25.60;76.90;;;;;;5051474;28;20471;-70
2023/02/20 10:49:57;;;;;;;2.47;1.70;;;25.80;74.80;;;;;;5050473;28;20803;-70
2023/02/20 10:52:29;;;;;;;3.00;1.73;;;26.30;74.30;;;;;;5049469;28;20470;-69
2023/02/20 10:55:03;;;;;;;2.80;1.77;;;26.00;73.80;;;;;;5051129;28;20479;-69
2023/02/20 10:57:35;;;;;;;1.93;1.63;;;26.30;74.40;;;;;;5051542;28;21026;-70
2023/02/20 11:00:07;;;;;;;2.23;1.53;;;26.70;72.60;;;;;;5051329;28;20459;-70
2023/02/20 11:02:39;;;;;;;3.07;1.57;;;26.80;72.00;;;;;;5050760;28;20467;-70
2023/02/20 11:05:11;;;;;;;2.73;1.80;;;26.50;72.40;;;;;;5051485;28;20458;-70
2023/02/20 11:07:39;;;;;;;1.60;1.43;;;27.00;72.70;;;;;;5051464;28;20476;-69
2023/02/20 11:10:06;;;;;;;1.63;1.30;;;27.10;70.80;;;;;;5050863;28;20471;-70
2023/02/20 11:12:37;;;;;;;2.50;1.73;;;27.00;72.30;;;;;;5051177;28;20736;-70
2023/02/20 11:15:06;;;;;;;2.47;1.80;;;27.20;71.40;;;;;;5050823;28;20572;-69
2023/02/20 11:17:35;;;;;;;2.63;1.87;;;27.30;70.30;;;;;;5051134;28;20482;-70
2023/02/20 11:20:03;;;;;;;2.23;1.50;;;27.50;70.20;;;;;;5051219;28;20468;-70
2023/02/20 11:22:44;;;;;;;2.67;1.97;;;27.20;69.80;;;;;;5050631;28;20463;-69
2023/02/20 11:25:19;;;;;;;3.03;1.60;;;27.30;70.40;;;;;;5050838;28;20455;-70
2023/02/20 11:27:48;;;;;;;1.90;1.60;;;27.40;69.40;;;;;;5050778;28;20482;-70
2023/02/20 11:30:28;;;;;;;2.93;2.00;;;27.00;70.70;;;;;;5051351;28;20551;-69
2023/02/20 11:33:01;;;;;;;3.87;1.53;;;27.40;70.00;;;;;;5030205;28;20470;-70
2023/02/20 11:35:32;;;;;;;3.17;2.23;;;26.50;69.50;;;;;;5030121;28;20480;-69
2023/02/20 11:38:32;;;;;;;1.60;1.47;;;26.30;71.60;;;;;;5050870;28;20588;-70
2023/02/20 11:41:25;;;;;;;2.87;1.50;;;27.00;69.60;;;;;;5050876;28;20469;-70
2023/02/20 11:44:07;;;;;;;3.47;1.93;;;26.40;71.40;;;;;;5050887;28;20890;-70
2023/02/20 11:46:34;;;;;;;1.53;1.30;;;26.70;70.80;;;;;;5050212;28;20479;-69
2023/02/20 11:49:04;;;;;;;1.97;1.50;;;26.30;70.00;;;;;;5050591;28;20959;-70
2023/02/20 11:51:44;;;;;;;2.97;1.63;;;26.00;69.80;;;;;;5050289;28;20464;-70
2023/02/20 11:54:17;;;;;;;2.60;1.30;;;26.10;70.50;;;;;;5050571;28;20850;-69
2023/02/20 11:57:00;;;;;;;2.73;1.10;;;27.00;68.90;;;;;;5049717;28;21006;-70
2023/02/20 11:59:31;;;;;;;1.57;1.27;;;27.30;68.00;;;;;;5050824;28;20467;-70
2023/02/20 12:02:27;;;;;;;1.83;1.33;;;27.50;67.20;;;;;;5049551;28;20459;-70
2023/02/20 12:05:10;;;;;;;2.33;1.30;;;27.10;68.30;;;;;;5050111;28;20467;-70
2023/02/20 12:07:39;;;;;;;2.13;1.40;;;27.80;66.00;;;;;;5050129;28;20583;-70
2023/02/20 12:10:22;;;;;;;2.60;1.33;;;28.40;66.30;;;;;;5050619;28;20887;-70
2023/02/20 12:12:49;;;;;;;1.43;1.10;;;28.40;65.30;;;;;;5049253;28;20462;-70
2023/02/20 12:15:18;;;;;;;1.87;1.00;;;28.10;66.40;;;;;;5049602;28;20973;-70
2023/02/20 12:18:08;;;;;;;1.37;1.27;;;28.30;65.50;;;;;;5052174;28;20479;-70
2023/02/20 12:20:37;;;;;;;2.00;1.00;;;28.60;63.50;;;;;;5052656;28;20459;-70
2023/02/20 12:23:14;;;;;;;1.77;1.00;;;27.30;64.20;;;;;;5066972;28;20461;-70
2023/02/20 12:25:55;;;;;;;1.43;1.00;;;27.30;66.30;;;;;;5069440;28;20485;-70
2023/02/20 12:28:29;;;;;;;1.30;1.20;;;28.00;64.50;;;;;;5050641;28;20782;-70
2023/02/20 12:31:12;;;;;;;2.40;1.00;;;27.70;64.10;;;;;;5048636;28;20459;-69
2023/02/20 12:34:17;;;;;;;1.57;1.33;;;27.40;65.20;;;;;;5050315;28;20482;-70
2023/02/20 12:36:50;;;;;;;1.30;1.00;;;28.00;64.20;;;;;;5046770;28;20997;-70
2023/02/20 12:39:29;;;;;;;1.67;1.03;;;28.60;63.90;;;;;;5050112;28;20505;-70
2023/02/20 12:42:11;;;;;;;1.80;1.20;;;28.40;63.30;;;;;;5049459;28;20459;-69
2023/02/20 12:45:15;;;;;;;1.50;0.83;;;28.40;63.40;;;;;;5049951;28;20820;-70
2023/02/20 12:47:43;;;;;;;2.37;1.20;;;27.30;63.30;;;;;;5049316;28;20870;-70
2023/02/20 12:50:33;;;;;;;1.43;1.20;;;26.30;64.50;;;;;;5050334;28;20529;-70
2023/02/20 12:53:32;;;;;;;1.57;1.10;;;26.60;65.70;;;;;;5049714;28;20464;-69
2023/02/20 12:56:09;;;;;;;2.07;0.90;;;26.60;64.30;;;;;;5047154;28;20479;-70
2023/02/20 12:58:46;;;;;;;1.07;0.97;;;27.10;65.00;;;;;;5050001;28;20478;-70
2023/02/20 13:01:16;;;;;;;1.03;0.93;;;27.30;63.50;;;;;;5050172;28;20462;-70
2023/02/20 13:03:51;;;;;;;2.80;1.13;;;27.40;63.30;;;;;;5049597;28;20517;-70
2023/02/20 13:06:30;;;;;;;3.67;1.53;;;27.60;62.80;;;;;;5049192;28;20454;-70
2023/02/20 13:09:06;;;;;;;1.60;1.17;;;27.70;62.50;;;;;;5049446;28;20462;-70
2023/02/20 13:11:38;;;;;;;2.47;1.37;;;27.30;64.00;;;;;;5049182;28;20458;-70
2023/02/20 13:14:19;;;;;;;1.00;0.90;;;27.40;62.60;;;;;;5049982;28;20461;-69
2023/02/20 13:16:54;;;;;;;1.53;1.03;;;26.80;62.60;;;;;;5048440;28;20833;-70
2023/02/20 13:19:25;;;;;;;1.37;1.00;;;26.40;63.50;;;;;;5049934;28;20864;-70
2023/02/20 13:21:54;;;;;;;1.80;1.07;;;26.60;64.30;;;;;;5048522;28;21061;-70
2023/02/20 13:24:29;;;;;;;0.90;0.80;;;27.00;63.00;;;;;;5050295;28;20841;-70
2023/02/20 13:26:57;;;;;;;1.30;0.90;;;27.30;62.90;;;;;;5049382;28;20482;-70
2023/02/20 13:29:27;;;;;;;1.30;1.10;;;27.50;61.80;;;;;;5039921;28;20897;-70